createdAt,value
2018-11-27T00:01:00.045Z,94103.83
2018-11-27T00:03:26.018Z,94111.67
2018-11-27T00:05:52.003Z,94108.54
2018-11-27T00:08:18.019Z,94108.14
2018-11-27T00:10:44.021Z,94113.66
2018-11-27T00:13:10.013Z,94119.55
2018-11-27T00:15:36.110Z,94124.87
2018-11-27T00:18:02.116Z,94122.92
2018-11-27T00:20:28.129Z,94124.86
2018-11-27T00:22:54.123Z,94124.48
2018-11-27T00:25:20.161Z,94122.69
2018-11-27T00:27:46.152Z,94118.50
2018-11-27T00:30:12.143Z,94115.21
2018-11-27T00:32:38.153Z,94116.01
2018-11-27T00:35:04.159Z,94124.01
2018-11-27T00:37:30.160Z,94124.84
2018-11-27T00:39:56.162Z,94124.80
2018-11-27T00:42:22.171Z,94131.32
2018-11-27T00:44:48.183Z,94135.06
2018-11-27T00:47:14.183Z,94133.29
2018-11-27T00:49:40.183Z,94143.27
2018-11-27T00:52:06.211Z,94143.48
2018-11-27T00:54:32.207Z,94144.05
2018-11-27T00:56:58.205Z,94145.83
2018-11-27T00:59:24.194Z,94147.95
2018-11-27T01:01:50.207Z,94147.38
2018-11-27T01:04:16.228Z,94145.88
2018-11-27T01:06:42.268Z,94144.45
2018-11-27T01:09:08.288Z,94139.13
2018-11-27T01:11:34.272Z,94143.25
2018-11-27T01:14:00.292Z,94150.78
2018-11-27T01:16:26.281Z,94144.66
2018-11-27T01:18:52.289Z,94145.08
2018-11-27T01:21:18.304Z,94139.00
2018-11-27T01:23:44.317Z,94140.33
2018-11-27T01:26:10.306Z,94140.39
2018-11-27T01:28:36.318Z,94135.59
2018-11-27T01:31:02.309Z,94141.35
2018-11-27T01:33:28.302Z,94134.83
2018-11-27T01:35:54.311Z,94136.59
2018-11-27T01:38:20.291Z,94136.78
2018-11-27T01:40:46.354Z,94134.62
2018-11-27T01:43:12.367Z,94137.98
2018-11-27T01:45:38.343Z,94135.58
2018-11-27T01:48:04.355Z,94139.14
2018-11-27T01:50:30.343Z,94138.34
2018-11-27T01:52:56.370Z,94136.38
2018-11-27T01:55:22.404Z,94138.16
2018-11-27T01:57:48.532Z,94138.95
2018-11-27T02:00:14.518Z,94127.92
2018-11-27T02:02:40.501Z,94127.92
2018-11-27T02:05:06.517Z,94130.47
2018-11-27T02:07:32.500Z,94131.32
2018-11-27T02:09:58.543Z,94126.33
2018-11-27T02:12:24.531Z,94122.83
2018-11-27T02:14:50.521Z,94122.22
2018-11-27T02:17:16.510Z,94130.07
2018-11-27T02:19:42.514Z,94120.44
2018-11-27T02:22:08.562Z,94119.05
2018-11-27T02:24:34.536Z,94121.05
2018-11-27T02:27:00.515Z,94116.94
2018-11-27T02:29:26.492Z,94113.95
2018-11-27T02:31:52.509Z,94115.32
2018-11-27T02:34:18.526Z,94110.44
2018-11-27T02:36:44.604Z,94116.31
2018-11-27T02:39:10.573Z,94119.47
2018-11-27T02:41:36.582Z,94125.17
2018-11-27T02:44:02.597Z,94126.16
2018-11-27T02:46:28.594Z,94132.05
2018-11-27T02:48:54.588Z,94126.53
2018-11-27T02:51:20.621Z,94119.05
2018-11-27T02:53:46.620Z,94120.83
2018-11-27T02:56:12.604Z,94125.75
2018-11-27T02:58:38.593Z,94127.13
2018-11-27T03:01:04.612Z,94125.73
2018-11-27T03:03:30.614Z,94121.80
2018-11-27T03:05:56.607Z,94138.70
2018-11-27T03:08:22.709Z,94141.66
2018-11-27T03:10:48.571Z,94141.67
2018-11-27T03:13:14.597Z,94135.38
2018-11-27T03:15:40.638Z,94131.83
2018-11-27T03:18:06.623Z,94139.09
2018-11-27T03:20:32.617Z,94131.06
2018-11-27T03:22:58.638Z,94130.86
2018-11-27T03:25:24.614Z,94137.33
2018-11-27T03:27:50.632Z,94136.36
2018-11-27T03:30:16.658Z,94140.69
2018-11-27T03:32:42.628Z,94133.81
2018-11-27T03:35:08.649Z,94131.81
2018-11-27T03:37:34.685Z,94131.23
2018-11-27T03:40:00.712Z,94132.03
2018-11-27T03:42:26.688Z,94116.88
2018-11-27T03:44:52.708Z,94111.77
2018-11-27T03:47:18.695Z,94113.16
2018-11-27T03:49:44.708Z,94113.16
2018-11-27T03:52:10.734Z,94112.95
2018-11-27T03:54:36.750Z,94117.87
2018-11-27T03:57:02.793Z,94117.87
2018-11-27T03:59:28.806Z,94117.08
2018-11-27T04:01:54.791Z,94118.45
2018-11-27T04:04:20.781Z,94121.20
2018-11-27T04:06:46.791Z,94131.41
2018-11-27T04:09:12.787Z,94132.59
2018-11-27T04:11:38.785Z,94137.91
2018-11-27T04:14:04.766Z,94140.84
2018-11-27T04:16:30.767Z,94152.85
2018-11-27T04:18:56.832Z,94147.17
2018-11-27T04:21:22.828Z,94135.94
2018-11-27T04:23:48.820Z,94138.30
2018-11-27T04:26:14.847Z,94143.03
2018-11-27T04:28:40.851Z,94141.27
2018-11-27T04:31:06.870Z,94144.42
2018-11-27T04:33:32.867Z,94150.33
2018-11-27T04:35:58.881Z,94152.05
2018-11-27T04:38:24.889Z,94154.45
2018-11-27T04:40:50.888Z,94158.58
2018-11-27T04:43:16.910Z,94162.88
2018-11-27T04:45:42.912Z,94166.61
2018-11-27T04:48:08.902Z,94161.31
2018-11-27T04:50:34.904Z,94161.89
2018-11-27T04:53:00.918Z,94163.05
2018-11-27T04:55:26.918Z,94162.90
2018-11-27T04:57:52.906Z,94173.09
2018-11-27T05:00:18.931Z,94172.69
2018-11-27T05:02:44.934Z,94170.55
2018-11-27T05:05:10.959Z,94166.98
2018-11-27T05:07:36.973Z,94154.97
2018-11-27T05:10:02.972Z,94160.09
2018-11-27T05:12:28.958Z,94160.52
2018-11-27T05:14:54.979Z,94162.69
2018-11-27T05:17:21.015Z,94161.89
2018-11-27T05:19:46.993Z,94166.59
2018-11-27T05:22:13.018Z,94165.04
2018-11-27T05:24:38.993Z,94161.06
2018-11-27T05:27:04.984Z,94153.05
2018-11-27T05:29:30.978Z,94147.73
2018-11-27T05:31:56.977Z,94152.03
2018-11-27T05:34:22.956Z,94158.14
2018-11-27T05:36:48.983Z,94165.38
2018-11-27T05:39:15.002Z,94164.23
2018-11-27T05:41:41.056Z,94165.23
2018-11-27T05:44:07.083Z,94161.66
2018-11-27T05:46:33.109Z,94160.09
2018-11-27T05:48:59.136Z,94166.97
2018-11-27T05:51:25.128Z,94164.05
2018-11-27T05:53:51.171Z,94169.13
2018-11-27T05:56:17.161Z,94160.65
2018-11-27T05:58:43.173Z,94154.77
2018-11-27T06:01:09.155Z,94154.61
2018-11-27T06:03:35.161Z,94154.03
2018-11-27T06:06:01.157Z,94160.49
2018-11-27T06:08:27.162Z,94164.64
2018-11-27T06:10:53.157Z,94171.92
2018-11-27T06:13:19.136Z,94177.80
2018-11-27T06:15:45.168Z,94173.67
2018-11-27T06:18:11.193Z,94169.73
2018-11-27T06:20:37.175Z,94166.81
2018-11-27T06:23:03.242Z,94162.50
2018-11-27T06:25:29.257Z,94161.33
2018-11-27T06:27:55.233Z,94150.91
2018-11-27T06:30:21.247Z,94164.88
2018-11-27T06:32:47.320Z,94168.59
2018-11-27T06:35:13.339Z,94175.17
2018-11-27T06:37:39.354Z,94172.63
2018-11-27T06:40:05.378Z,94167.94
2018-11-27T06:42:31.361Z,94172.80
2018-11-27T06:44:57.421Z,94172.16
2018-11-27T06:47:23.457Z,94172.53
2018-11-27T06:49:49.446Z,94171.05
2018-11-27T06:52:15.424Z,94173.25
2018-11-27T06:54:41.408Z,94165.80
2018-11-27T06:57:07.489Z,94163.47
2018-11-27T06:59:33.486Z,94165.45
2018-11-27T07:01:59.473Z,94144.99
2018-11-27T07:04:25.542Z,94139.50
2018-11-27T07:06:51.530Z,94139.47
2018-11-27T07:09:17.549Z,94138.84
2018-11-27T07:11:43.563Z,94146.52
2018-11-27T07:14:09.587Z,94147.48
2018-11-27T07:16:35.561Z,94142.77
2018-11-27T07:19:01.572Z,94143.56
2018-11-27T07:21:27.608Z,94138.43
2018-11-27T07:23:53.643Z,94142.94
2018-11-27T07:26:19.663Z,94144.92
2018-11-27T07:28:45.673Z,94141.35
2018-11-27T07:31:11.718Z,94140.97
2018-11-27T07:33:37.717Z,94146.65
2018-11-27T07:36:03.759Z,94148.63
2018-11-27T07:38:29.744Z,94146.02
2018-11-27T07:40:55.793Z,94141.75
2018-11-27T07:43:21.809Z,94143.53
2018-11-27T07:45:47.879Z,94152.95
2018-11-27T07:48:13.882Z,94151.80
2018-11-27T07:50:39.952Z,94146.45
2018-11-27T07:53:05.960Z,94164.17
2018-11-27T07:55:31.959Z,94159.64
2018-11-27T07:57:57.984Z,94148.98
2018-11-27T08:00:24.154Z,94160.23
2018-11-27T08:02:50.175Z,94165.55
2018-11-27T08:05:16.192Z,94162.74
2018-11-27T08:07:42.245Z,94154.71
2018-11-27T08:10:08.286Z,94153.16
2018-11-27T08:12:34.262Z,94153.53
2018-11-27T08:15:00.249Z,94139.72
2018-11-27T08:17:26.269Z,94146.67
2018-11-27T08:19:52.282Z,94148.23
2018-11-27T08:22:18.381Z,94147.69
2018-11-27T08:24:44.433Z,94144.58
2018-11-27T08:27:10.433Z,94144.97
2018-11-27T08:29:36.421Z,94150.29
2018-11-27T08:32:02.483Z,94155.22
2018-11-27T08:34:28.490Z,94159.92
2018-11-27T08:36:54.546Z,94153.45
2018-11-27T08:39:20.548Z,94154.00
2018-11-27T08:41:46.553Z,94148.46
2018-11-27T08:44:12.595Z,94146.91
2018-11-27T08:46:38.604Z,94151.03
2018-11-27T08:49:04.605Z,94155.33
2018-11-27T08:51:30.617Z,94160.45
2018-11-27T08:53:56.662Z,94156.30
2018-11-27T08:56:22.675Z,94157.48
2018-11-27T08:58:48.698Z,94164.19
2018-11-27T09:01:14.706Z,94163.00
2018-11-27T09:03:40.729Z,94150.41
2018-11-27T09:06:06.757Z,94142.73
2018-11-27T09:08:32.773Z,94130.89
2018-11-27T09:10:58.845Z,94129.77
2018-11-27T09:13:24.852Z,94127.34
2018-11-27T09:15:50.855Z,94131.87
2018-11-27T09:18:16.831Z,94122.62
2018-11-27T09:20:42.846Z,94118.09
2018-11-27T09:23:08.874Z,94118.70
2018-11-27T09:25:34.891Z,94110.80
2018-11-27T09:28:00.909Z,94112.98
2018-11-27T09:30:26.959Z,94104.54
2018-11-27T09:32:52.956Z,94111.59
2018-11-27T09:35:19.032Z,94108.65
2018-11-27T09:37:45.038Z,94109.63
2018-11-27T09:40:11.037Z,94118.08
2018-11-27T09:42:37.052Z,94109.81
2018-11-27T09:45:03.047Z,94112.57
2018-11-27T09:47:29.066Z,94113.75
2018-11-27T09:49:55.078Z,94120.25
2018-11-27T09:52:21.140Z,94110.02
2018-11-27T09:54:47.120Z,94116.30
2018-11-27T09:57:13.142Z,94109.81
2018-11-27T09:59:39.158Z,94107.67
2018-11-27T10:02:05.141Z,94099.78
2018-11-27T10:04:31.252Z,94098.04
2018-11-27T10:06:57.271Z,94098.62
2018-11-27T10:09:23.338Z,94104.31
2018-11-27T10:11:49.287Z,94102.54
2018-11-27T10:14:15.277Z,94091.36
2018-11-27T10:16:41.321Z,94089.20
2018-11-27T10:19:07.311Z,94082.54
2018-11-27T10:21:33.378Z,94086.72
2018-11-27T10:23:59.411Z,94093.41
2018-11-27T10:26:25.422Z,94093.21
2018-11-27T10:28:51.447Z,94095.18
2018-11-27T10:31:17.564Z,94102.67
2018-11-27T10:33:43.586Z,94095.21
2018-11-27T10:36:09.585Z,94094.50
2018-11-27T10:38:35.589Z,94099.27
2018-11-27T10:41:01.574Z,94097.84
2018-11-27T10:43:27.557Z,94089.33
2018-11-27T10:45:53.549Z,94086.60
2018-11-27T10:48:19.695Z,94089.95
2018-11-27T10:50:45.669Z,94098.39
2018-11-27T10:53:11.723Z,94086.22
2018-11-27T10:55:37.717Z,94089.98
2018-11-27T10:58:03.700Z,94089.61
2018-11-27T11:00:29.722Z,94087.23
2018-11-27T11:02:55.926Z,94077.75
2018-11-27T11:05:21.913Z,94094.27
2018-11-27T11:07:47.901Z,94087.77
2018-11-27T11:10:13.952Z,94089.56
2018-11-27T11:12:39.928Z,94081.08
2018-11-27T11:15:05.942Z,94080.51
2018-11-27T11:17:32.044Z,94076.94
2018-11-27T11:19:58.112Z,94080.09
2018-11-27T11:22:24.110Z,94078.13
2018-11-27T11:24:50.118Z,94071.81
2018-11-27T11:27:16.103Z,94074.17
2018-11-27T11:29:42.121Z,94085.00
2018-11-27T11:32:08.138Z,94074.57
2018-11-27T11:34:34.187Z,94079.08
2018-11-27T11:37:00.191Z,94079.66
2018-11-27T11:39:26.250Z,94073.39
2018-11-27T11:41:52.278Z,94072.38
2018-11-27T11:44:18.290Z,94072.36
2018-11-27T11:46:44.280Z,94067.48
2018-11-27T11:49:10.281Z,94070.81
2018-11-27T11:51:36.279Z,94070.98
2018-11-27T11:54:02.298Z,94075.12
2018-11-27T11:56:28.321Z,94077.88
2018-11-27T11:58:54.391Z,94073.55
2018-11-27T12:01:20.405Z,94070.02
2018-11-27T12:03:46.429Z,94070.80
2018-11-27T12:06:12.426Z,94060.17
2018-11-27T12:08:38.414Z,94064.30
2018-11-27T12:11:04.443Z,94062.09
2018-11-27T12:13:30.402Z,94062.09
2018-11-27T12:15:56.390Z,94057.02
2018-11-27T12:18:22.392Z,94058.17
2018-11-27T12:20:48.387Z,94071.94
2018-11-27T12:23:14.390Z,94070.20
2018-11-27T12:25:40.370Z,94062.67
2018-11-27T12:28:06.358Z,94057.17
2018-11-27T12:30:32.371Z,94061.55
2018-11-27T12:32:58.393Z,94059.55
2018-11-27T12:35:24.395Z,94060.53
2018-11-27T12:37:50.385Z,94065.42
2018-11-27T12:40:16.370Z,94065.23
2018-11-27T12:42:42.375Z,94060.12
2018-11-27T12:45:08.379Z,94061.16
2018-11-27T12:47:34.353Z,94057.16
2018-11-27T12:50:00.380Z,94059.92
2018-11-27T12:52:26.360Z,94045.39
2018-11-27T12:54:52.349Z,94035.36
2018-11-27T12:57:18.366Z,94032.61
2018-11-27T12:59:44.392Z,94028.66
2018-11-27T13:02:10.400Z,94039.27
2018-11-27T13:04:36.441Z,94040.85
2018-11-27T13:07:02.510Z,94040.27
2018-11-27T13:09:28.503Z,94043.02
2018-11-27T13:11:54.498Z,94034.55
2018-11-27T13:14:20.505Z,94032.99
2018-11-27T13:16:46.507Z,94038.89
2018-11-27T13:19:12.505Z,94036.33
2018-11-27T13:21:38.504Z,94028.06
2018-11-27T13:24:04.549Z,94035.52
2018-11-27T13:26:30.562Z,94029.61
2018-11-27T13:28:56.555Z,94032.77
2018-11-27T13:31:22.576Z,94037.88
2018-11-27T13:33:48.587Z,94048.88
2018-11-27T13:36:14.613Z,94050.26
2018-11-27T13:38:40.611Z,94050.87
2018-11-27T13:41:06.603Z,94048.29
2018-11-27T13:43:32.587Z,94052.81
2018-11-27T13:45:58.599Z,94059.30
2018-11-27T13:48:24.633Z,94060.08
2018-11-27T13:50:50.757Z,94063.63
2018-11-27T13:53:16.758Z,94058.90
2018-11-27T13:55:42.762Z,94059.88
2018-11-27T13:58:08.760Z,94059.88
2018-11-27T14:00:34.789Z,94070.11
2018-11-27T14:03:00.822Z,94063.23
2018-11-27T14:05:26.817Z,94068.73
2018-11-27T14:07:52.820Z,94066.38
2018-11-27T14:10:18.843Z,94063.23
2018-11-27T14:12:44.832Z,94062.25
2018-11-27T14:15:10.850Z,94062.83
2018-11-27T14:17:36.874Z,94064.20
2018-11-27T14:20:02.873Z,94066.56
2018-11-27T14:22:28.864Z,94065.76
2018-11-27T14:24:54.887Z,94056.13
2018-11-27T14:27:20.907Z,94057.33
2018-11-27T14:29:46.900Z,94055.36
2018-11-27T14:32:12.957Z,94047.28
2018-11-27T14:34:38.998Z,94051.03
2018-11-27T14:37:04.976Z,94059.28
2018-11-27T14:39:31.050Z,94059.27
2018-11-27T14:41:57.047Z,94063.41
2018-11-27T14:44:23.082Z,94060.66
2018-11-27T14:46:49.082Z,94061.47
2018-11-27T14:49:15.120Z,94062.29
2018-11-27T14:51:41.106Z,94063.28
2018-11-27T14:54:07.138Z,94050.75
2018-11-27T14:56:33.112Z,94054.49
2018-11-27T14:58:59.131Z,94054.13
2018-11-27T15:01:25.154Z,94055.93
2018-11-27T15:03:51.137Z,94059.45
2018-11-27T15:06:17.142Z,94069.87
2018-11-27T15:08:43.218Z,94065.58
2018-11-27T15:11:12.668Z,94071.26
2018-11-27T15:13:35.299Z,94072.45
2018-11-27T15:16:01.348Z,94079.13
2018-11-27T15:18:27.360Z,94080.11
2018-11-27T15:20:54.664Z,94071.47
2018-11-27T15:23:26.116Z,94060.66
2018-11-27T15:25:52.094Z,94043.09
2018-11-27T15:28:18.105Z,94064.95
2018-11-27T15:30:44.115Z,94070.66
2018-11-27T15:33:10.150Z,94064.77
2018-11-27T15:35:36.535Z,94060.63
2018-11-27T15:38:02.566Z,94062.19
2018-11-27T15:40:29.520Z,94064.19
2018-11-27T15:42:55.594Z,94066.31
2018-11-27T15:45:22.597Z,94073.20
2018-11-27T15:47:48.769Z,94070.27
2018-11-27T15:50:14.756Z,94079.67
2018-11-27T15:52:40.801Z,94077.89
2018-11-27T15:55:07.360Z,94082.23
2018-11-27T15:57:33.372Z,94079.27
2018-11-27T15:59:59.397Z,94074.97
2018-11-27T16:02:25.412Z,94075.93
2018-11-27T16:04:51.537Z,94078.52
2018-11-27T16:07:17.574Z,94070.28
2018-11-27T16:09:43.582Z,94068.91
2018-11-27T16:12:09.647Z,94064.20
2018-11-27T16:14:35.623Z,94066.58
2018-11-27T16:17:01.650Z,94072.31
2018-11-27T16:19:27.668Z,94073.09
2018-11-27T16:21:53.684Z,94077.99
2018-11-27T16:24:19.679Z,94076.92
2018-11-27T16:26:45.771Z,94068.90
2018-11-27T16:29:11.757Z,94065.91
2018-11-27T16:31:37.809Z,94066.70
2018-11-27T16:34:04.146Z,94071.61
2018-11-27T16:36:30.164Z,94064.92
2018-11-27T16:38:56.214Z,94067.70
2018-11-27T16:41:22.259Z,94073.98
2018-11-27T16:43:48.246Z,94077.48
2018-11-27T16:46:14.270Z,94081.66
2018-11-27T16:48:40.276Z,94072.02
2018-11-27T16:51:06.398Z,94070.05
2018-11-27T16:53:32.425Z,94057.88
2018-11-27T16:55:58.438Z,94059.44
2018-11-27T16:58:24.721Z,94064.55
2018-11-27T17:00:51.670Z,94071.03
2018-11-27T17:03:17.783Z,94076.77
2018-11-27T17:05:44.378Z,94077.55
2018-11-27T17:08:12.989Z,94072.82
2018-11-27T17:10:38.993Z,94067.55
2018-11-27T17:13:04.987Z,94072.64
2018-11-27T17:15:31.023Z,94082.31
2018-11-27T17:17:57.021Z,94073.63
2018-11-27T17:20:23.121Z,94076.80
2018-11-27T17:22:49.067Z,94075.22
2018-11-27T17:25:15.113Z,94076.79
2018-11-27T17:27:41.943Z,94079.94
2018-11-27T17:30:07.122Z,94080.92
2018-11-27T17:32:33.100Z,94087.02
2018-11-27T17:34:59.398Z,94088.58
2018-11-27T17:37:25.408Z,94086.06
2018-11-27T17:39:51.405Z,94097.05
2018-11-27T17:42:17.596Z,94087.00
2018-11-27T17:44:44.561Z,94082.28
2018-11-27T17:47:10.790Z,94081.50
2018-11-27T17:49:37.646Z,94080.91
2018-11-27T17:52:03.729Z,94083.27
2018-11-27T17:54:29.733Z,94079.72
2018-11-27T17:56:56.217Z,94082.88
2018-11-27T17:59:22.214Z,94079.95
2018-11-27T18:01:49.087Z,94075.98
2018-11-27T18:04:15.135Z,94077.19
2018-11-27T18:06:41.155Z,94074.06
2018-11-27T18:09:10.846Z,94073.07
2018-11-27T18:11:37.692Z,94074.80
2018-11-27T18:14:03.714Z,94080.70
2018-11-27T18:16:31.187Z,94080.91
2018-11-27T18:18:57.221Z,94076.18
2018-11-27T18:21:25.393Z,94076.59
2018-11-27T18:23:51.623Z,94081.91
2018-11-27T18:26:17.723Z,94082.48
2018-11-27T18:28:43.744Z,94086.44
2018-11-27T18:31:09.744Z,94076.18
2018-11-27T18:33:36.832Z,94078.17
2018-11-27T18:36:02.829Z,94078.76
2018-11-27T18:38:28.870Z,94081.91
2018-11-27T18:40:54.860Z,94080.55
2018-11-27T18:43:20.892Z,94081.77
2018-11-27T18:45:47.721Z,94090.25
2018-11-27T18:48:13.812Z,94084.56
2018-11-27T18:50:40.588Z,94083.38
2018-11-27T18:53:06.663Z,94082.17
2018-11-27T18:55:36.240Z,94088.08
2018-11-27T18:58:02.275Z,94086.11
2018-11-27T19:00:28.284Z,94087.31
2018-11-27T19:02:54.322Z,94083.35
2018-11-27T19:05:20.419Z,94096.17
2018-11-27T19:07:46.388Z,94093.81
2018-11-27T19:10:12.464Z,94092.64
2018-11-27T19:12:38.534Z,94093.22
2018-11-27T19:15:04.601Z,94089.70
2018-11-27T19:17:30.631Z,94095.78
2018-11-27T19:19:56.723Z,94092.45
2018-11-27T19:22:22.745Z,94092.85
2018-11-27T19:24:48.772Z,94094.98
2018-11-27T19:27:15.821Z,94090.27
2018-11-27T19:29:42.223Z,94092.45
2018-11-27T19:32:08.235Z,94091.46
2018-11-27T19:34:34.268Z,94086.14
2018-11-27T19:37:00.303Z,94092.98
2018-11-27T19:39:26.631Z,94095.31
2018-11-27T19:41:52.668Z,94099.45
2018-11-27T19:44:18.667Z,94095.52
2018-11-27T19:46:44.700Z,94091.00
2018-11-27T19:49:10.816Z,94090.20
2018-11-27T19:51:36.879Z,94092.15
2018-11-27T19:54:02.902Z,94100.41
2018-11-27T19:56:28.982Z,94097.06
2018-11-27T19:58:54.984Z,94099.02
2018-11-27T20:01:21.048Z,94099.02
2018-11-27T20:03:47.072Z,94102.75
2018-11-27T20:06:13.074Z,94101.18
2018-11-27T20:08:39.118Z,94097.64
2018-11-27T20:11:05.134Z,94088.98
2018-11-27T20:13:31.176Z,94095.27
2018-11-27T20:15:57.180Z,94092.13
2018-11-27T20:18:23.200Z,94095.66
2018-11-27T20:20:49.221Z,94097.83
2018-11-27T20:23:15.291Z,94100.37
2018-11-27T20:25:41.276Z,94107.06
2018-11-27T20:28:07.334Z,94110.01
2018-11-27T20:30:33.361Z,94103.34
2018-11-27T20:32:59.360Z,94104.48
2018-11-27T20:35:28.443Z,94108.44
2018-11-27T20:37:54.485Z,94101.54
2018-11-27T20:40:20.587Z,94101.73
2018-11-27T20:42:46.602Z,94103.69
2018-11-27T20:45:12.647Z,94109.40
2018-11-27T20:47:38.726Z,94112.34
2018-11-27T20:50:04.714Z,94121.21
2018-11-27T20:52:30.849Z,94127.48
2018-11-27T20:54:56.874Z,94133.20
2018-11-27T20:57:22.929Z,94136.93
2018-11-27T20:59:48.998Z,94128.47
2018-11-27T21:02:15.011Z,94129.05
2018-11-27T21:04:40.997Z,94129.07
2018-11-27T21:07:07.044Z,94124.94
2018-11-27T21:09:33.094Z,94128.27
2018-11-27T21:11:59.235Z,94126.50
2018-11-27T21:14:25.414Z,94124.32
2018-11-27T21:16:51.415Z,94128.08
2018-11-27T21:19:17.396Z,94129.83
2018-11-27T21:21:43.384Z,94140.47
2018-11-27T21:24:09.396Z,94141.63
2018-11-27T21:26:35.681Z,94134.16
2018-11-27T21:29:01.433Z,94142.41
2018-11-27T21:31:27.423Z,94148.30
2018-11-27T21:33:53.441Z,94156.94
2018-11-27T21:36:19.454Z,94144.33
2018-11-27T21:38:45.476Z,94143.92
2018-11-27T21:41:11.493Z,94145.88
2018-11-27T21:43:37.498Z,94150.61
2018-11-27T21:46:03.474Z,94149.02
2018-11-27T21:48:29.500Z,94143.51
2018-11-27T21:50:55.503Z,94145.09
2018-11-27T21:53:21.479Z,94138.39
2018-11-27T21:55:47.472Z,94147.84
2018-11-27T21:58:13.489Z,94151.98
2018-11-27T22:00:39.469Z,94153.34
2018-11-27T22:03:05.465Z,94156.27
2018-11-27T22:05:31.481Z,94154.70
2018-11-27T22:07:57.482Z,94144.24
2018-11-27T22:10:23.479Z,94158.60
2018-11-27T22:12:49.461Z,94166.68
2018-11-27T22:15:15.467Z,94163.13
2018-11-27T22:17:41.474Z,94171.59
2018-11-27T22:20:07.467Z,94172.17
2018-11-27T22:22:33.490Z,94169.98
2018-11-27T22:24:59.467Z,94169.19
2018-11-27T22:27:25.528Z,94175.70
2018-11-27T22:29:51.533Z,94171.58
2018-11-27T22:32:17.545Z,94164.47
2018-11-27T22:34:43.523Z,94170.77
2018-11-27T22:37:09.528Z,94171.75
2018-11-27T22:39:35.547Z,94170.77
2018-11-27T22:42:01.565Z,94166.05
2018-11-27T22:44:27.572Z,94165.45
2018-11-27T22:46:53.567Z,94163.30
2018-11-27T22:49:19.538Z,94168.80
2018-11-27T22:51:45.559Z,94163.28
2018-11-27T22:54:11.571Z,94169.16
2018-11-27T22:56:37.586Z,94174.87
2018-11-27T22:59:03.597Z,94173.67
2018-11-27T23:01:29.611Z,94172.30
2018-11-27T23:03:55.595Z,94175.65
2018-11-27T23:06:21.603Z,94174.64
2018-11-27T23:08:47.603Z,94171.70
2018-11-27T23:11:13.598Z,94169.14
2018-11-27T23:13:39.594Z,94165.39
2018-11-27T23:16:05.600Z,94171.70
2018-11-27T23:18:31.607Z,94166.97
2018-11-27T23:20:57.629Z,94159.30
2018-11-27T23:23:23.631Z,94158.31
2018-11-27T23:25:49.610Z,94166.77
2018-11-27T23:28:15.607Z,94167.16
2018-11-27T23:30:41.603Z,94161.45
2018-11-27T23:33:07.606Z,94165.36
2018-11-27T23:35:33.625Z,94167.94
2018-11-27T23:37:59.642Z,94165.36
2018-11-27T23:40:25.642Z,94158.88
2018-11-27T23:42:51.631Z,94163.58
2018-11-27T23:45:17.632Z,94155.53
2018-11-27T23:47:43.662Z,94162.81
2018-11-27T23:50:09.657Z,94163.39
2018-11-27T23:52:35.671Z,94154.73
2018-11-27T23:55:01.649Z,94155.53
2018-11-27T23:57:27.656Z,94163.77
2018-11-27T23:59:53.683Z,94169.29
